sensor_id;sensor_type;location;lat;lon;timestamp;P1;durP1;ratioP1;P2;durP2;ratioP2
20101;SDS011;10210;52.284;9.892;2022-12-18T00:00:46;24.40;;;10.80;;
20101;SDS011;10210;52.284;9.892;2022-12-18T00:03:13;26.67;;;11.43;;
20101;SDS011;10210;52.284;9.892;2022-12-18T00:05:46;24.10;;;11.07;;
20101;SDS011;10210;52.284;9.892;2022-12-18T00:08:14;21.43;;;10.00;;
20101;SDS011;10210;52.284;9.892;2022-12-18T00:10:41;22.97;;;11.57;;
20101;SDS011;10210;52.284;9.892;2022-12-18T00:13:07;21.77;;;11.07;;
20101;SDS011;10210;52.284;9.892;2022-12-18T00:15:34;24.63;;;11.60;;
20101;SDS011;10210;52.284;9.892;2022-12-18T00:18:01;23.30;;;11.83;;
20101;SDS011;10210;52.284;9.892;2022-12-18T00:20:26;25.00;;;11.67;;
20101;SDS011;10210;52.284;9.892;2022-12-18T00:22:53;23.20;;;11.13;;
20101;SDS011;10210;52.284;9.892;2022-12-18T00:25:19;23.07;;;10.83;;
20101;SDS011;10210;52.284;9.892;2022-12-18T00:27:44;25.03;;;12.10;;
20101;SDS011;10210;52.284;9.892;2022-12-18T00:30:11;23.17;;;11.27;;
20101;SDS011;10210;52.284;9.892;2022-12-18T00:32:37;22.40;;;11.20;;
20101;SDS011;10210;52.284;9.892;2022-12-18T00:35:03;25.00;;;12.67;;
20101;SDS011;10210;52.284;9.892;2022-12-18T00:37:30;21.53;;;11.53;;
20101;SDS011;10210;52.284;9.892;2022-12-18T00:39:58;24.80;;;11.80;;
20101;SDS011;10210;52.284;9.892;2022-12-18T00:42:24;23.03;;;11.23;;
20101;SDS011;10210;52.284;9.892;2022-12-18T00:45:08;23.83;;;11.70;;
20101;SDS011;10210;52.284;9.892;2022-12-18T00:47:34;24.27;;;12.23;;
20101;SDS011;10210;52.284;9.892;2022-12-18T00:50:00;24.73;;;12.20;;
20101;SDS011;10210;52.284;9.892;2022-12-18T00:52:25;24.03;;;11.77;;
20101;SDS011;10210;52.284;9.892;2022-12-18T00:54:51;24.20;;;12.47;;
20101;SDS011;10210;52.284;9.892;2022-12-18T00:57:17;24.10;;;11.80;;
20101;SDS011;10210;52.284;9.892;2022-12-18T00:59:43;24.30;;;12.57;;
20101;SDS011;10210;52.284;9.892;2022-12-18T01:02:08;26.70;;;11.77;;
20101;SDS011;10210;52.284;9.892;2022-12-18T01:04:34;24.43;;;11.83;;
20101;SDS011;10210;52.284;9.892;2022-12-18T01:07:00;24.17;;;11.63;;
20101;SDS011;10210;52.284;9.892;2022-12-18T01:09:26;23.67;;;11.50;;
20101;SDS011;10210;52.284;9.892;2022-12-18T01:11:51;22.00;;;11.10;;
20101;SDS011;10210;52.284;9.892;2022-12-18T01:14:17;24.43;;;12.53;;
20101;SDS011;10210;52.284;9.892;2022-12-18T01:16:43;24.27;;;11.57;;
20101;SDS011;10210;52.284;9.892;2022-12-18T01:19:09;23.63;;;11.20;;
20101;SDS011;10210;52.284;9.892;2022-12-18T01:21:34;22.33;;;11.27;;
20101;SDS011;10210;52.284;9.892;2022-12-18T01:24:00;24.53;;;12.80;;
20101;SDS011;10210;52.284;9.892;2022-12-18T01:26:26;25.70;;;12.13;;
20101;SDS011;10210;52.284;9.892;2022-12-18T01:28:54;25.83;;;12.40;;
20101;SDS011;10210;52.284;9.892;2022-12-18T01:31:25;23.53;;;11.33;;
20101;SDS011;10210;52.284;9.892;2022-12-18T01:33:53;23.50;;;12.10;;
20101;SDS011;10210;52.284;9.892;2022-12-18T01:38:51;22.77;;;11.70;;
20101;SDS011;10210;52.284;9.892;2022-12-18T01:41:20;23.10;;;11.47;;
20101;SDS011;10210;52.284;9.892;2022-12-18T01:43:55;24.00;;;10.73;;
20101;SDS011;10210;52.284;9.892;2022-12-18T01:46:23;25.03;;;11.93;;
20101;SDS011;10210;52.284;9.892;2022-12-18T01:48:55;22.80;;;10.67;;
20101;SDS011;10210;52.284;9.892;2022-12-18T01:51:26;21.63;;;10.80;;
20101;SDS011;10210;52.284;9.892;2022-12-18T01:53:54;23.53;;;10.77;;
20101;SDS011;10210;52.284;9.892;2022-12-18T01:56:21;23.90;;;11.17;;
20101;SDS011;10210;52.284;9.892;2022-12-18T01:58:52;22.80;;;9.87;;
20101;SDS011;10210;52.284;9.892;2022-12-18T02:01:33;24.83;;;10.97;;
20101;SDS011;10210;52.284;9.892;2022-12-18T02:04:19;24.50;;;12.17;;
20101;SDS011;10210;52.284;9.892;2022-12-18T02:06:47;26.47;;;12.30;;
20101;SDS011;10210;52.284;9.892;2022-12-18T02:09:48;29.17;;;12.40;;
20101;SDS011;10210;52.284;9.892;2022-12-18T02:12:28;25.87;;;12.23;;
20101;SDS011;10210;52.284;9.892;2022-12-18T02:15:48;25.13;;;12.40;;
20101;SDS011;10210;52.284;9.892;2022-12-18T02:18:26;26.57;;;12.50;;
20101;SDS011;10210;52.284;9.892;2022-12-18T02:21:08;26.87;;;11.47;;
20101;SDS011;10210;52.284;9.892;2022-12-18T02:29:00;23.13;;;11.27;;
20101;SDS011;10210;52.284;9.892;2022-12-18T02:31:35;22.63;;;10.63;;
20101;SDS011;10210;52.284;9.892;2022-12-18T02:34:12;24.77;;;11.03;;
20101;SDS011;10210;52.284;9.892;2022-12-18T02:36:41;23.00;;;9.80;;
20101;SDS011;10210;52.284;9.892;2022-12-18T02:39:11;21.70;;;10.43;;
20101;SDS011;10210;52.284;9.892;2022-12-18T02:41:40;25.03;;;11.33;;
20101;SDS011;10210;52.284;9.892;2022-12-18T02:44:08;19.33;;;10.03;;
20101;SDS011;10210;52.284;9.892;2022-12-18T02:46:38;22.73;;;10.50;;
20101;SDS011;10210;52.284;9.892;2022-12-18T02:52:21;20.43;;;10.00;;
20101;SDS011;10210;52.284;9.892;2022-12-18T02:57:49;18.67;;;8.80;;
20101;SDS011;10210;52.284;9.892;2022-12-18T03:00:51;20.07;;;9.50;;
20101;SDS011;10210;52.284;9.892;2022-12-18T03:03:25;19.53;;;9.00;;
20101;SDS011;10210;52.284;9.892;2022-12-18T03:06:18;18.90;;;9.20;;
20101;SDS011;10210;52.284;9.892;2022-12-18T03:08:58;19.10;;;8.80;;
20101;SDS011;10210;52.284;9.892;2022-12-18T03:11:31;19.53;;;8.97;;
20101;SDS011;10210;52.284;9.892;2022-12-18T03:14:23;24.27;;;10.23;;
20101;SDS011;10210;52.284;9.892;2022-12-18T03:16:57;20.43;;;9.77;;
20101;SDS011;10210;52.284;9.892;2022-12-18T03:19:28;21.87;;;9.60;;
20101;SDS011;10210;52.284;9.892;2022-12-18T03:21:57;23.17;;;10.43;;
20101;SDS011;10210;52.284;9.892;2022-12-18T03:24:27;21.97;;;9.83;;
20101;SDS011;10210;52.284;9.892;2022-12-18T03:27:11;21.37;;;9.90;;
20101;SDS011;10210;52.284;9.892;2022-12-18T03:29:46;22.10;;;9.37;;
20101;SDS011;10210;52.284;9.892;2022-12-18T03:32:23;18.73;;;9.07;;
20101;SDS011;10210;52.284;9.892;2022-12-18T03:34:59;20.33;;;10.07;;
20101;SDS011;10210;52.284;9.892;2022-12-18T03:37:30;20.07;;;9.23;;
20101;SDS011;10210;52.284;9.892;2022-12-18T03:39:56;21.77;;;10.17;;
20101;SDS011;10210;52.284;9.892;2022-12-18T03:42:43;21.17;;;9.77;;
20101;SDS011;10210;52.284;9.892;2022-12-18T03:45:23;19.07;;;9.10;;
20101;SDS011;10210;52.284;9.892;2022-12-18T03:48:13;21.00;;;9.37;;
20101;SDS011;10210;52.284;9.892;2022-12-18T03:50:59;19.23;;;8.67;;
20101;SDS011;10210;52.284;9.892;2022-12-18T03:53:47;20.37;;;10.10;;
20101;SDS011;10210;52.284;9.892;2022-12-18T03:56:23;20.80;;;9.10;;
20101;SDS011;10210;52.284;9.892;2022-12-18T03:58:56;23.20;;;9.53;;
20101;SDS011;10210;52.284;9.892;2022-12-18T04:01:26;21.90;;;9.30;;
20101;SDS011;10210;52.284;9.892;2022-12-18T04:04:01;19.37;;;9.20;;
20101;SDS011;10210;52.284;9.892;2022-12-18T04:06:29;21.97;;;10.10;;
20101;SDS011;10210;52.284;9.892;2022-12-18T04:08:57;20.20;;;9.43;;
20101;SDS011;10210;52.284;9.892;2022-12-18T04:11:23;20.37;;;8.67;;
20101;SDS011;10210;52.284;9.892;2022-12-18T04:13:49;21.63;;;9.60;;
20101;SDS011;10210;52.284;9.892;2022-12-18T04:16:15;20.30;;;8.57;;
20101;SDS011;10210;52.284;9.892;2022-12-18T04:18:40;19.80;;;9.70;;
20101;SDS011;10210;52.284;9.892;2022-12-18T04:21:06;19.57;;;8.80;;
20101;SDS011;10210;52.284;9.892;2022-12-18T04:23:32;21.13;;;8.83;;
20101;SDS011;10210;52.284;9.892;2022-12-18T04:25:57;20.83;;;9.67;;
20101;SDS011;10210;52.284;9.892;2022-12-18T04:28:23;18.53;;;8.60;;
20101;SDS011;10210;52.284;9.892;2022-12-18T04:30:49;19.70;;;9.03;;
20101;SDS011;10210;52.284;9.892;2022-12-18T04:33:14;19.30;;;9.27;;
20101;SDS011;10210;52.284;9.892;2022-12-18T04:35:40;21.47;;;9.40;;
20101;SDS011;10210;52.284;9.892;2022-12-18T04:38:07;21.70;;;9.17;;
20101;SDS011;10210;52.284;9.892;2022-12-18T04:40:33;20.13;;;9.07;;
20101;SDS011;10210;52.284;9.892;2022-12-18T04:42:59;21.03;;;9.30;;
20101;SDS011;10210;52.284;9.892;2022-12-18T04:45:25;21.00;;;9.00;;
20101;SDS011;10210;52.284;9.892;2022-12-18T04:47:51;19.03;;;8.43;;
20101;SDS011;10210;52.284;9.892;2022-12-18T04:50:16;18.57;;;8.70;;
20101;SDS011;10210;52.284;9.892;2022-12-18T04:52:42;22.37;;;9.60;;
20101;SDS011;10210;52.284;9.892;2022-12-18T04:55:08;19.43;;;8.90;;
20101;SDS011;10210;52.284;9.892;2022-12-18T04:57:34;19.90;;;9.70;;
20101;SDS011;10210;52.284;9.892;2022-12-18T04:59:59;20.23;;;8.77;;
20101;SDS011;10210;52.284;9.892;2022-12-18T05:02:25;20.80;;;9.30;;
20101;SDS011;10210;52.284;9.892;2022-12-18T05:04:51;19.67;;;8.60;;
20101;SDS011;10210;52.284;9.892;2022-12-18T05:07:17;18.40;;;8.60;;
20101;SDS011;10210;52.284;9.892;2022-12-18T05:09:43;20.90;;;9.17;;
20101;SDS011;10210;52.284;9.892;2022-12-18T05:12:09;19.73;;;9.20;;
20101;SDS011;10210;52.284;9.892;2022-12-18T05:14:34;19.10;;;8.60;;
20101;SDS011;10210;52.284;9.892;2022-12-18T05:17:00;20.80;;;9.47;;
20101;SDS011;10210;52.284;9.892;2022-12-18T05:19:25;20.73;;;8.97;;
20101;SDS011;10210;52.284;9.892;2022-12-18T05:21:51;18.20;;;8.33;;
20101;SDS011;10210;52.284;9.892;2022-12-18T05:24:17;19.93;;;9.50;;
20101;SDS011;10210;52.284;9.892;2022-12-18T05:26:42;18.60;;;8.50;;
20101;SDS011;10210;52.284;9.892;2022-12-18T05:29:08;19.17;;;8.50;;
20101;SDS011;10210;52.284;9.892;2022-12-18T05:31:37;19.53;;;8.30;;
20101;SDS011;10210;52.284;9.892;2022-12-18T05:34:03;20.03;;;8.90;;
20101;SDS011;10210;52.284;9.892;2022-12-18T05:36:30;21.97;;;9.17;;
20101;SDS011;10210;52.284;9.892;2022-12-18T05:38:55;20.67;;;8.60;;
20101;SDS011;10210;52.284;9.892;2022-12-18T05:41:21;20.87;;;8.73;;
20101;SDS011;10210;52.284;9.892;2022-12-18T05:43:47;23.37;;;9.47;;
20101;SDS011;10210;52.284;9.892;2022-12-18T05:46:14;21.00;;;9.13;;
20101;SDS011;10210;52.284;9.892;2022-12-18T05:48:43;20.30;;;9.20;;
20101;SDS011;10210;52.284;9.892;2022-12-18T05:51:11;20.63;;;9.57;;
20101;SDS011;10210;52.284;9.892;2022-12-18T05:53:40;23.73;;;11.03;;
20101;SDS011;10210;52.284;9.892;2022-12-18T05:56:09;23.63;;;9.97;;
20101;SDS011;10210;52.284;9.892;2022-12-18T05:58:38;19.17;;;8.00;;
20101;SDS011;10210;52.284;9.892;2022-12-18T06:01:06;18.10;;;8.63;;
20101;SDS011;10210;52.284;9.892;2022-12-18T06:03:37;19.93;;;8.30;;
20101;SDS011;10210;52.284;9.892;2022-12-18T06:06:03;17.87;;;8.20;;
20101;SDS011;10210;52.284;9.892;2022-12-18T06:08:36;18.93;;;8.67;;
20101;SDS011;10210;52.284;9.892;2022-12-18T06:11:02;17.70;;;8.03;;
20101;SDS011;10210;52.284;9.892;2022-12-18T06:13:28;19.13;;;8.60;;
20101;SDS011;10210;52.284;9.892;2022-12-18T06:15:54;16.57;;;7.60;;
20101;SDS011;10210;52.284;9.892;2022-12-18T06:18:19;18.50;;;7.67;;
20101;SDS011;10210;52.284;9.892;2022-12-18T06:20:51;16.83;;;7.40;;
20101;SDS011;10210;52.284;9.892;2022-12-18T06:23:21;17.10;;;7.40;;
20101;SDS011;10210;52.284;9.892;2022-12-18T06:25:46;17.87;;;7.83;;
20101;SDS011;10210;52.284;9.892;2022-12-18T06:28:12;16.30;;;7.77;;
20101;SDS011;10210;52.284;9.892;2022-12-18T06:30:38;17.97;;;8.10;;
20101;SDS011;10210;52.284;9.892;2022-12-18T06:33:03;18.43;;;8.70;;
20101;SDS011;10210;52.284;9.892;2022-12-18T06:35:29;17.67;;;7.10;;
20101;SDS011;10210;52.284;9.892;2022-12-18T06:37:56;19.17;;;7.57;;
20101;SDS011;10210;52.284;9.892;2022-12-18T06:40:22;18.10;;;7.80;;
20101;SDS011;10210;52.284;9.892;2022-12-18T06:42:48;18.50;;;7.50;;
20101;SDS011;10210;52.284;9.892;2022-12-18T06:45:13;16.67;;;6.93;;
20101;SDS011;10210;52.284;9.892;2022-12-18T06:47:39;16.73;;;7.20;;
20101;SDS011;10210;52.284;9.892;2022-12-18T06:50:05;16.57;;;7.67;;
20101;SDS011;10210;52.284;9.892;2022-12-18T06:54:58;17.87;;;8.40;;
20101;SDS011;10210;52.284;9.892;2022-12-18T06:57:24;18.03;;;7.67;;
20101;SDS011;10210;52.284;9.892;2022-12-18T06:59:51;19.67;;;7.93;;
20101;SDS011;10210;52.284;9.892;2022-12-18T07:02:17;15.37;;;6.80;;
20101;SDS011;10210;52.284;9.892;2022-12-18T07:04:42;18.63;;;7.33;;
20101;SDS011;10210;52.284;9.892;2022-12-18T07:07:08;19.00;;;7.60;;
20101;SDS011;10210;52.284;9.892;2022-12-18T07:09:34;16.17;;;7.30;;
20101;SDS011;10210;52.284;9.892;2022-12-18T07:11:59;17.07;;;7.43;;
20101;SDS011;10210;52.284;9.892;2022-12-18T07:14:25;18.37;;;7.23;;
20101;SDS011;10210;52.284;9.892;2022-12-18T07:16:51;17.33;;;7.80;;
20101;SDS011;10210;52.284;9.892;2022-12-18T07:19:16;17.10;;;7.47;;
20101;SDS011;10210;52.284;9.892;2022-12-18T07:21:42;18.57;;;7.20;;
20101;SDS011;10210;52.284;9.892;2022-12-18T07:24:08;20.17;;;8.13;;
20101;SDS011;10210;52.284;9.892;2022-12-18T07:26:33;20.97;;;7.30;;
20101;SDS011;10210;52.284;9.892;2022-12-18T07:28:59;14.80;;;6.47;;
20101;SDS011;10210;52.284;9.892;2022-12-18T07:31:25;16.77;;;6.87;;
20101;SDS011;10210;52.284;9.892;2022-12-18T07:33:52;16.80;;;6.90;;
20101;SDS011;10210;52.284;9.892;2022-12-18T07:36:17;18.23;;;7.67;;
20101;SDS011;10210;52.284;9.892;2022-12-18T07:38:46;17.03;;;7.07;;
20101;SDS011;10210;52.284;9.892;2022-12-18T07:41:13;15.87;;;6.50;;
20101;SDS011;10210;52.284;9.892;2022-12-18T07:43:39;17.37;;;7.63;;
20101;SDS011;10210;52.284;9.892;2022-12-18T07:46:06;17.60;;;7.70;;
20101;SDS011;10210;52.284;9.892;2022-12-18T07:48:33;23.27;;;8.23;;
20101;SDS011;10210;52.284;9.892;2022-12-18T07:51:00;16.47;;;7.00;;
20101;SDS011;10210;52.284;9.892;2022-12-18T07:53:27;16.80;;;7.20;;
20101;SDS011;10210;52.284;9.892;2022-12-18T07:56:00;19.17;;;7.10;;
20101;SDS011;10210;52.284;9.892;2022-12-18T07:58:30;15.83;;;6.90;;
20101;SDS011;10210;52.284;9.892;2022-12-18T08:01:02;17.57;;;7.20;;
20101;SDS011;10210;52.284;9.892;2022-12-18T08:03:29;17.37;;;6.77;;
20101;SDS011;10210;52.284;9.892;2022-12-18T08:05:59;17.97;;;7.10;;
20101;SDS011;10210;52.284;9.892;2022-12-18T08:08:26;18.37;;;7.40;;
20101;SDS011;10210;52.284;9.892;2022-12-18T08:10:53;17.50;;;6.70;;
20101;SDS011;10210;52.284;9.892;2022-12-18T08:13:19;17.77;;;7.77;;
20101;SDS011;10210;52.284;9.892;2022-12-18T08:15:45;15.23;;;6.33;;
20101;SDS011;10210;52.284;9.892;2022-12-18T08:18:11;13.97;;;6.10;;
20101;SDS011;10210;52.284;9.892;2022-12-18T08:20:37;17.90;;;6.60;;
20101;SDS011;10210;52.284;9.892;2022-12-18T08:23:03;17.33;;;7.40;;
20101;SDS011;10210;52.284;9.892;2022-12-18T08:25:28;15.33;;;6.23;;
20101;SDS011;10210;52.284;9.892;2022-12-18T08:27:54;17.53;;;6.70;;
20101;SDS011;10210;52.284;9.892;2022-12-18T08:30:21;25.77;;;12.43;;
20101;SDS011;10210;52.284;9.892;2022-12-18T08:32:49;27.43;;;14.30;;
20101;SDS011;10210;52.284;9.892;2022-12-18T08:35:17;21.73;;;10.40;;
20101;SDS011;10210;52.284;9.892;2022-12-18T08:37:43;26.37;;;13.07;;
20101;SDS011;10210;52.284;9.892;2022-12-18T08:40:09;16.13;;;7.30;;
20101;SDS011;10210;52.284;9.892;2022-12-18T08:42:35;18.60;;;8.13;;
20101;SDS011;10210;52.284;9.892;2022-12-18T08:45:19;16.47;;;8.00;;
20101;SDS011;10210;52.284;9.892;2022-12-18T08:47:45;17.20;;;7.93;;
20101;SDS011;10210;52.284;9.892;2022-12-18T08:50:11;15.57;;;7.07;;
20101;SDS011;10210;52.284;9.892;2022-12-18T08:52:37;15.60;;;6.20;;
20101;SDS011;10210;52.284;9.892;2022-12-18T08:55:03;14.97;;;6.23;;
20101;SDS011;10210;52.284;9.892;2022-12-18T08:57:29;16.67;;;5.90;;
20101;SDS011;10210;52.284;9.892;2022-12-18T08:59:55;16.10;;;6.13;;
20101;SDS011;10210;52.284;9.892;2022-12-18T09:02:20;16.73;;;6.70;;
20101;SDS011;10210;52.284;9.892;2022-12-18T09:04:46;16.00;;;6.40;;
20101;SDS011;10210;52.284;9.892;2022-12-18T09:07:13;15.77;;;6.40;;
20101;SDS011;10210;52.284;9.892;2022-12-18T09:09:38;16.07;;;6.73;;
20101;SDS011;10210;52.284;9.892;2022-12-18T09:12:05;17.07;;;6.83;;
20101;SDS011;10210;52.284;9.892;2022-12-18T09:14:30;15.77;;;6.10;;
20101;SDS011;10210;52.284;9.892;2022-12-18T09:16:56;17.13;;;6.53;;
20101;SDS011;10210;52.284;9.892;2022-12-18T09:19:22;18.50;;;7.07;;
20101;SDS011;10210;52.284;9.892;2022-12-18T09:21:47;16.50;;;7.20;;
20101;SDS011;10210;52.284;9.892;2022-12-18T09:24:13;17.43;;;7.27;;
20101;SDS011;10210;52.284;9.892;2022-12-18T09:26:40;16.77;;;7.00;;
20101;SDS011;10210;52.284;9.892;2022-12-18T09:29:06;17.13;;;7.57;;
20101;SDS011;10210;52.284;9.892;2022-12-18T09:31:35;18.10;;;8.03;;
20101;SDS011;10210;52.284;9.892;2022-12-18T09:34:02;19.13;;;8.23;;
20101;SDS011;10210;52.284;9.892;2022-12-18T09:36:28;18.97;;;7.93;;
20101;SDS011;10210;52.284;9.892;2022-12-18T09:38:54;18.70;;;7.83;;
20101;SDS011;10210;52.284;9.892;2022-12-18T09:44:34;20.40;;;9.17;;
20101;SDS011;10210;52.284;9.892;2022-12-18T09:47:19;28.67;;;14.33;;
20101;SDS011;10210;52.284;9.892;2022-12-18T09:50:04;18.70;;;9.60;;
20101;SDS011;10210;52.284;9.892;2022-12-18T09:52:47;20.90;;;9.23;;
20101;SDS011;10210;52.284;9.892;2022-12-18T09:55:51;19.50;;;8.97;;
20101;SDS011;10210;52.284;9.892;2022-12-18T09:58:27;19.67;;;9.23;;
20101;SDS011;10210;52.284;9.892;2022-12-18T10:01:17;18.40;;;8.20;;
20101;SDS011;10210;52.284;9.892;2022-12-18T10:03:47;18.87;;;8.63;;
20101;SDS011;10210;52.284;9.892;2022-12-18T10:06:15;19.17;;;9.33;;
20101;SDS011;10210;52.284;9.892;2022-12-18T10:09:17;21.13;;;9.80;;
20101;SDS011;10210;52.284;9.892;2022-12-18T10:14:28;20.43;;;9.30;;
20101;SDS011;10210;52.284;9.892;2022-12-18T10:19:52;21.37;;;8.83;;
20101;SDS011;10210;52.284;9.892;2022-12-18T10:28:03;18.47;;;8.53;;
20101;SDS011;10210;52.284;9.892;2022-12-18T10:30:38;17.93;;;8.50;;
20101;SDS011;10210;52.284;9.892;2022-12-18T10:33:08;17.83;;;8.27;;
20101;SDS011;10210;52.284;9.892;2022-12-18T10:35:44;17.77;;;8.20;;
20101;SDS011;10210;52.284;9.892;2022-12-18T10:43:31;16.67;;;6.77;;
20101;SDS011;10210;52.284;9.892;2022-12-18T10:48:36;16.63;;;6.27;;
20101;SDS011;10210;52.284;9.892;2022-12-18T10:51:19;14.43;;;6.07;;
20101;SDS011;10210;52.284;9.892;2022-12-18T10:54:05;15.17;;;6.60;;
20101;SDS011;10210;52.284;9.892;2022-12-18T10:56:41;15.20;;;6.27;;
20101;SDS011;10210;52.284;9.892;2022-12-18T10:59:09;16.23;;;6.40;;
20101;SDS011;10210;52.284;9.892;2022-12-18T11:01:48;17.63;;;6.77;;
20101;SDS011;10210;52.284;9.892;2022-12-18T11:04:16;13.87;;;6.27;;
20101;SDS011;10210;52.284;9.892;2022-12-18T11:09:38;15.07;;;5.93;;
20101;SDS011;10210;52.284;9.892;2022-12-18T11:12:16;14.53;;;5.40;;
20101;SDS011;10210;52.284;9.892;2022-12-18T11:14:52;15.13;;;5.70;;
20101;SDS011;10210;52.284;9.892;2022-12-18T11:17:34;16.77;;;6.03;;
20101;SDS011;10210;52.284;9.892;2022-12-18T11:20:02;15.30;;;5.80;;
20101;SDS011;10210;52.284;9.892;2022-12-18T11:25:29;20.87;;;9.03;;
20101;SDS011;10210;52.284;9.892;2022-12-18T11:28:01;13.23;;;5.60;;
20101;SDS011;10210;52.284;9.892;2022-12-18T11:30:37;14.10;;;5.57;;
20101;SDS011;10210;52.284;9.892;2022-12-18T11:33:06;15.07;;;4.93;;
20101;SDS011;10210;52.284;9.892;2022-12-18T11:35:42;16.27;;;5.10;;
20101;SDS011;10210;52.284;9.892;2022-12-18T11:38:26;13.87;;;5.30;;
20101;SDS011;10210;52.284;9.892;2022-12-18T11:41:14;15.40;;;5.60;;
20101;SDS011;10210;52.284;9.892;2022-12-18T11:44:38;14.03;;;5.00;;
20101;SDS011;10210;52.284;9.892;2022-12-18T11:47:44;14.37;;;5.03;;
20101;SDS011;10210;52.284;9.892;2022-12-18T11:50:28;13.07;;;4.87;;
20101;SDS011;10210;52.284;9.892;2022-12-18T11:53:01;12.60;;;4.90;;
20101;SDS011;10210;52.284;9.892;2022-12-18T11:58:26;13.00;;;4.87;;
20101;SDS011;10210;52.284;9.892;2022-12-18T12:16:05;17.27;;;7.83;;
20101;SDS011;10210;52.284;9.892;2022-12-18T12:18:56;19.13;;;8.53;;
20101;SDS011;10210;52.284;9.892;2022-12-18T12:21:53;20.57;;;9.10;;
20101;SDS011;10210;52.284;9.892;2022-12-18T12:30:32;18.23;;;8.43;;
20101;SDS011;10210;52.284;9.892;2022-12-18T12:33:39;17.20;;;7.70;;
20101;SDS011;10210;52.284;9.892;2022-12-18T12:36:21;20.07;;;8.20;;
20101;SDS011;10210;52.284;9.892;2022-12-18T12:39:19;18.50;;;9.03;;
20101;SDS011;10210;52.284;9.892;2022-12-18T12:41:56;18.23;;;8.67;;
20101;SDS011;10210;52.284;9.892;2022-12-18T12:44:47;18.97;;;8.63;;
20101;SDS011;10210;52.284;9.892;2022-12-18T12:47:23;18.40;;;7.67;;
20101;SDS011;10210;52.284;9.892;2022-12-18T12:50:12;20.47;;;9.50;;
20101;SDS011;10210;52.284;9.892;2022-12-18T12:52:44;21.53;;;9.87;;
20101;SDS011;10210;52.284;9.892;2022-12-18T12:55:22;23.87;;;10.60;;
20101;SDS011;10210;52.284;9.892;2022-12-18T13:00:18;23.90;;;11.93;;
20101;SDS011;10210;52.284;9.892;2022-12-18T13:06:03;22.63;;;11.73;;
20101;SDS011;10210;52.284;9.892;2022-12-18T13:08:51;23.03;;;11.53;;
20101;SDS011;10210;52.284;9.892;2022-12-18T13:14:27;26.50;;;13.30;;
20101;SDS011;10210;52.284;9.892;2022-12-18T13:19:50;29.63;;;14.97;;
20101;SDS011;10210;52.284;9.892;2022-12-18T13:22:40;31.90;;;13.53;;
20101;SDS011;10210;52.284;9.892;2022-12-18T13:25:27;28.10;;;14.30;;
20101;SDS011;10210;52.284;9.892;2022-12-18T13:28:07;26.53;;;13.10;;
20101;SDS011;10210;52.284;9.892;2022-12-18T13:30:43;27.07;;;14.00;;
20101;SDS011;10210;52.284;9.892;2022-12-18T13:44:36;31.10;;;16.57;;
20101;SDS011;10210;52.284;9.892;2022-12-18T13:47:11;33.90;;;17.20;;
20101;SDS011;10210;52.284;9.892;2022-12-18T13:49:58;33.30;;;16.43;;
20101;SDS011;10210;52.284;9.892;2022-12-18T13:52:26;33.23;;;17.30;;
20101;SDS011;10210;52.284;9.892;2022-12-18T13:55:02;35.73;;;18.13;;
20101;SDS011;10210;52.284;9.892;2022-12-18T13:57:39;36.93;;;17.90;;
20101;SDS011;10210;52.284;9.892;2022-12-18T14:00:27;36.57;;;19.13;;
20101;SDS011;10210;52.284;9.892;2022-12-18T14:02:57;37.40;;;18.97;;
20101;SDS011;10210;52.284;9.892;2022-12-18T14:07:58;35.23;;;18.77;;
20101;SDS011;10210;52.284;9.892;2022-12-18T14:10:30;35.73;;;17.93;;
20101;SDS011;10210;52.284;9.892;2022-12-18T14:12:58;37.73;;;17.67;;
20101;SDS011;10210;52.284;9.892;2022-12-18T14:15:40;34.60;;;17.27;;
20101;SDS011;10210;52.284;9.892;2022-12-18T14:21:00;36.37;;;17.77;;
20101;SDS011;10210;52.284;9.892;2022-12-18T14:26:18;37.33;;;17.70;;
20101;SDS011;10210;52.284;9.892;2022-12-18T14:28:55;37.40;;;17.83;;
20101;SDS011;10210;52.284;9.892;2022-12-18T14:31:27;35.00;;;17.77;;
20101;SDS011;10210;52.284;9.892;2022-12-18T14:33:55;33.00;;;16.50;;
20101;SDS011;10210;52.284;9.892;2022-12-18T14:36:25;32.30;;;17.07;;
20101;SDS011;10210;52.284;9.892;2022-12-18T14:38:54;38.83;;;18.20;;
20101;SDS011;10210;52.284;9.892;2022-12-18T14:41:24;32.97;;;16.30;;
20101;SDS011;10210;52.284;9.892;2022-12-18T14:43:51;33.47;;;15.30;;
20101;SDS011;10210;52.284;9.892;2022-12-18T14:46:35;31.37;;;16.10;;
20101;SDS011;10210;52.284;9.892;2022-12-18T14:49:03;34.20;;;16.63;;
20101;SDS011;10210;52.284;9.892;2022-12-18T14:51:52;35.27;;;16.73;;
20101;SDS011;10210;52.284;9.892;2022-12-18T14:54:22;34.07;;;17.10;;
20101;SDS011;10210;52.284;9.892;2022-12-18T14:57:20;32.80;;;16.97;;
20101;SDS011;10210;52.284;9.892;2022-12-18T14:59:50;34.87;;;18.23;;
20101;SDS011;10210;52.284;9.892;2022-12-18T15:02:23;35.30;;;18.83;;
20101;SDS011;10210;52.284;9.892;2022-12-18T15:07:44;37.03;;;18.70;;
20101;SDS011;10210;52.284;9.892;2022-12-18T15:10:26;37.83;;;19.30;;
20101;SDS011;10210;52.284;9.892;2022-12-18T15:23:47;32.57;;;16.77;;
20101;SDS011;10210;52.284;9.892;2022-12-18T15:26:17;34.73;;;17.57;;
20101;SDS011;10210;52.284;9.892;2022-12-18T15:28:50;31.97;;;17.07;;
20101;SDS011;10210;52.284;9.892;2022-12-18T15:31:32;34.33;;;17.27;;
20101;SDS011;10210;52.284;9.892;2022-12-18T15:34:13;34.30;;;16.47;;
20101;SDS011;10210;52.284;9.892;2022-12-18T15:36:45;32.97;;;16.37;;
20101;SDS011;10210;52.284;9.892;2022-12-18T15:39:11;33.10;;;17.13;;
20101;SDS011;10210;52.284;9.892;2022-12-18T15:41:38;32.47;;;16.73;;
20101;SDS011;10210;52.284;9.892;2022-12-18T15:44:23;33.43;;;16.30;;
20101;SDS011;10210;52.284;9.892;2022-12-18T15:46:50;31.67;;;15.70;;
20101;SDS011;10210;52.284;9.892;2022-12-18T15:49:16;31.23;;;15.77;;
20101;SDS011;10210;52.284;9.892;2022-12-18T15:51:41;32.37;;;15.07;;
20101;SDS011;10210;52.284;9.892;2022-12-18T15:54:09;30.37;;;15.47;;
20101;SDS011;10210;52.284;9.892;2022-12-18T15:56:40;32.43;;;15.67;;
20101;SDS011;10210;52.284;9.892;2022-12-18T15:59:24;27.90;;;14.47;;
20101;SDS011;10210;52.284;9.892;2022-12-18T16:01:51;29.50;;;15.70;;
20101;SDS011;10210;52.284;9.892;2022-12-18T16:04:21;30.13;;;15.37;;
20101;SDS011;10210;52.284;9.892;2022-12-18T16:06:48;29.23;;;15.10;;
20101;SDS011;10210;52.284;9.892;2022-12-18T16:09:16;30.10;;;15.33;;
20101;SDS011;10210;52.284;9.892;2022-12-18T16:11:42;27.90;;;14.90;;
20101;SDS011;10210;52.284;9.892;2022-12-18T16:16:43;29.10;;;15.33;;
20101;SDS011;10210;52.284;9.892;2022-12-18T16:19:10;31.60;;;15.23;;
20101;SDS011;10210;52.284;9.892;2022-12-18T16:21:36;30.77;;;15.73;;
20101;SDS011;10210;52.284;9.892;2022-12-18T16:24:01;28.07;;;14.80;;
20101;SDS011;10210;52.284;9.892;2022-12-18T16:26:27;30.00;;;15.17;;
20101;SDS011;10210;52.284;9.892;2022-12-18T16:28:53;31.17;;;15.47;;
20101;SDS011;10210;52.284;9.892;2022-12-18T16:31:19;28.83;;;15.17;;
20101;SDS011;10210;52.284;9.892;2022-12-18T16:33:45;31.27;;;16.10;;
20101;SDS011;10210;52.284;9.892;2022-12-18T16:36:11;31.53;;;17.27;;
20101;SDS011;10210;52.284;9.892;2022-12-18T16:38:37;30.70;;;16.47;;
20101;SDS011;10210;52.284;9.892;2022-12-18T16:41:06;31.20;;;16.40;;
20101;SDS011;10210;52.284;9.892;2022-12-18T16:43:56;30.93;;;16.20;;
20101;SDS011;10210;52.284;9.892;2022-12-18T16:46:22;31.33;;;16.13;;
20101;SDS011;10210;52.284;9.892;2022-12-18T16:48:48;32.90;;;16.57;;